sensor_id;sensor_type;location;lat;lon;timestamp;temperature;humidity
25346;DHT22;13300;51.032;3.710;2024-03-22T00:00:39;14.00;99.90
25346;DHT22;13300;51.032;3.710;2024-03-22T00:03:05;14.00;99.90
25346;DHT22;13300;51.032;3.710;2024-03-22T00:05:30;13.90;99.90
25346;DHT22;13300;51.032;3.710;2024-03-22T00:07:56;13.70;99.90
25346;DHT22;13300;51.032;3.710;2024-03-22T00:10:22;13.70;99.90
25346;DHT22;13300;51.032;3.710;2024-03-22T00:12:49;13.80;99.90
25346;DHT22;13300;51.032;3.710;2024-03-22T00:15:15;13.70;99.90
25346;DHT22;13300;51.032;3.710;2024-03-22T00:17:42;13.70;99.90
25346;DHT22;13300;51.032;3.710;2024-03-22T00:20:08;13.60;99.90
25346;DHT22;13300;51.032;3.710;2024-03-22T00:22:34;13.50;99.90
25346;DHT22;13300;51.032;3.710;2024-03-22T00:24:59;13.40;99.90
25346;DHT22;13300;51.032;3.710;2024-03-22T00:27:25;13.30;99.90
25346;DHT22;13300;51.032;3.710;2024-03-22T00:29:50;13.20;99.90
25346;DHT22;13300;51.032;3.710;2024-03-22T00:32:16;13.20;99.90
25346;DHT22;13300;51.032;3.710;2024-03-22T00:34:42;13.20;99.90
25346;DHT22;13300;51.032;3.710;2024-03-22T00:37:07;13.20;99.90
25346;DHT22;13300;51.032;3.710;2024-03-22T00:39:33;13.20;99.90
25346;DHT22;13300;51.032;3.710;2024-03-22T00:42:01;13.10;99.90
25346;DHT22;13300;51.032;3.710;2024-03-22T00:44:26;13.00;99.90
25346;DHT22;13300;51.032;3.710;2024-03-22T00:46:52;13.00;99.90
25346;DHT22;13300;51.032;3.710;2024-03-22T00:49:18;12.90;99.90
25346;DHT22;13300;51.032;3.710;2024-03-22T00:51:44;12.90;99.90
25346;DHT22;13300;51.032;3.710;2024-03-22T00:54:10;13.00;99.90
25346;DHT22;13300;51.032;3.710;2024-03-22T00:56:36;13.10;99.90
25346;DHT22;13300;51.032;3.710;2024-03-22T00:59:01;13.10;99.90
25346;DHT22;13300;51.032;3.710;2024-03-22T01:01:27;13.00;99.90
25346;DHT22;13300;51.032;3.710;2024-03-22T01:03:53;12.90;99.90
25346;DHT22;13300;51.032;3.710;2024-03-22T01:06:18;12.80;99.90
25346;DHT22;13300;51.032;3.710;2024-03-22T01:08:49;12.70;99.90
25346;DHT22;13300;51.032;3.710;2024-03-22T01:11:15;12.80;99.90
25346;DHT22;13300;51.032;3.710;2024-03-22T01:13:40;12.80;99.90
25346;DHT22;13300;51.032;3.710;2024-03-22T01:16:06;12.70;99.90
25346;DHT22;13300;51.032;3.710;2024-03-22T01:18:38;12.60;99.90
25346;DHT22;13300;51.032;3.710;2024-03-22T01:21:04;12.50;99.90
25346;DHT22;13300;51.032;3.710;2024-03-22T01:23:30;12.40;99.90
25346;DHT22;13300;51.032;3.710;2024-03-22T01:25:56;12.30;99.90
25346;DHT22;13300;51.032;3.710;2024-03-22T01:28:22;12.40;99.90
25346;DHT22;13300;51.032;3.710;2024-03-22T01:30:47;12.40;99.90
25346;DHT22;13300;51.032;3.710;2024-03-22T01:33:13;12.40;99.90
25346;DHT22;13300;51.032;3.710;2024-03-22T01:35:39;12.30;99.90
25346;DHT22;13300;51.032;3.710;2024-03-22T01:38:04;12.30;99.90
25346;DHT22;13300;51.032;3.710;2024-03-22T01:40:30;12.20;99.90
25346;DHT22;13300;51.032;3.710;2024-03-22T01:42:57;12.20;99.90
25346;DHT22;13300;51.032;3.710;2024-03-22T01:45:23;12.20;99.90
25346;DHT22;13300;51.032;3.710;2024-03-22T01:47:52;12.20;99.90
25346;DHT22;13300;51.032;3.710;2024-03-22T01:50:20;12.20;99.90
25346;DHT22;13300;51.032;3.710;2024-03-22T01:52:46;12.10;99.90
25346;DHT22;13300;51.032;3.710;2024-03-22T01:55:12;12.10;99.90
25346;DHT22;13300;51.032;3.710;2024-03-22T01:57:38;12.20;99.90
25346;DHT22;13300;51.032;3.710;2024-03-22T02:00:04;12.20;99.90
25346;DHT22;13300;51.032;3.710;2024-03-22T02:02:30;12.10;99.90
25346;DHT22;13300;51.032;3.710;2024-03-22T02:04:56;12.20;99.90
25346;DHT22;13300;51.032;3.710;2024-03-22T02:07:22;12.20;99.90
25346;DHT22;13300;51.032;3.710;2024-03-22T02:09:48;12.20;99.90
25346;DHT22;13300;51.032;3.710;2024-03-22T02:12:13;12.30;99.90
25346;DHT22;13300;51.032;3.710;2024-03-22T02:14:39;12.20;99.90
25346;DHT22;13300;51.032;3.710;2024-03-22T02:17:05;12.20;99.90
25346;DHT22;13300;51.032;3.710;2024-03-22T02:19:31;12.10;99.90
25346;DHT22;13300;51.032;3.710;2024-03-22T02:21:56;12.10;99.90
25346;DHT22;13300;51.032;3.710;2024-03-22T02:24:22;12.10;99.90
25346;DHT22;13300;51.032;3.710;2024-03-22T02:26:47;12.00;99.90
25346;DHT22;13300;51.032;3.710;2024-03-22T02:29:13;12.00;99.90
25346;DHT22;13300;51.032;3.710;2024-03-22T02:31:39;12.00;99.90
25346;DHT22;13300;51.032;3.710;2024-03-22T02:34:05;12.10;99.90
25346;DHT22;13300;51.032;3.710;2024-03-22T02:36:30;12.10;99.90
25346;DHT22;13300;51.032;3.710;2024-03-22T02:38:56;12.20;99.90
25346;DHT22;13300;51.032;3.710;2024-03-22T02:41:22;12.20;99.90
25346;DHT22;13300;51.032;3.710;2024-03-22T02:43:47;12.10;99.90
25346;DHT22;13300;51.032;3.710;2024-03-22T02:46:13;12.10;99.90
25346;DHT22;13300;51.032;3.710;2024-03-22T02:48:39;12.10;99.90
25346;DHT22;13300;51.032;3.710;2024-03-22T02:51:04;12.10;99.90
25346;DHT22;13300;51.032;3.710;2024-03-22T02:53:30;12.20;99.90
25346;DHT22;13300;51.032;3.710;2024-03-22T02:55:56;12.10;99.90
25346;DHT22;13300;51.032;3.710;2024-03-22T02:58:24;12.10;99.90
25346;DHT22;13300;51.032;3.710;2024-03-22T03:00:50;12.20;99.90
25346;DHT22;13300;51.032;3.710;2024-03-22T03:03:15;12.10;99.90
25346;DHT22;13300;51.032;3.710;2024-03-22T03:05:42;12.20;99.90
25346;DHT22;13300;51.032;3.710;2024-03-22T03:08:07;12.20;99.90
25346;DHT22;13300;51.032;3.710;2024-03-22T03:10:33;12.20;99.90
25346;DHT22;13300;51.032;3.710;2024-03-22T03:12:59;12.30;99.90
25346;DHT22;13300;51.032;3.710;2024-03-22T03:15:24;12.20;99.90
25346;DHT22;13300;51.032;3.710;2024-03-22T03:17:50;12.10;99.90
25346;DHT22;13300;51.032;3.710;2024-03-22T03:20:17;12.10;99.90
25346;DHT22;13300;51.032;3.710;2024-03-22T03:22:43;11.90;99.90
25346;DHT22;13300;51.032;3.710;2024-03-22T03:25:09;11.80;99.90
25346;DHT22;13300;51.032;3.710;2024-03-22T03:27:35;11.90;99.90
25346;DHT22;13300;51.032;3.710;2024-03-22T03:30:01;11.80;99.90
25346;DHT22;13300;51.032;3.710;2024-03-22T03:32:27;11.70;99.90
25346;DHT22;13300;51.032;3.710;2024-03-22T03:34:54;11.70;99.90
25346;DHT22;13300;51.032;3.710;2024-03-22T03:37:19;11.80;99.90
25346;DHT22;13300;51.032;3.710;2024-03-22T03:39:45;11.80;99.90
25346;DHT22;13300;51.032;3.710;2024-03-22T03:42:11;11.80;99.90
25346;DHT22;13300;51.032;3.710;2024-03-22T03:44:36;11.90;99.90
25346;DHT22;13300;51.032;3.710;2024-03-22T03:47:02;11.90;99.90
25346;DHT22;13300;51.032;3.710;2024-03-22T03:49:28;11.80;99.90
25346;DHT22;13300;51.032;3.710;2024-03-22T03:51:54;11.80;99.90
25346;DHT22;13300;51.032;3.710;2024-03-22T03:54:19;11.80;99.90
25346;DHT22;13300;51.032;3.710;2024-03-22T03:56:45;11.80;99.90
25346;DHT22;13300;51.032;3.710;2024-03-22T03:59:11;11.80;99.90
25346;DHT22;13300;51.032;3.710;2024-03-22T04:01:36;11.80;99.90
25346;DHT22;13300;51.032;3.710;2024-03-22T04:04:03;11.90;99.90
25346;DHT22;13300;51.032;3.710;2024-03-22T04:06:29;12.00;99.90
25346;DHT22;13300;51.032;3.710;2024-03-22T04:08:54;12.00;99.90
25346;DHT22;13300;51.032;3.710;2024-03-22T04:11:20;12.10;99.90
25346;DHT22;13300;51.032;3.710;2024-03-22T04:13:46;12.10;99.90
25346;DHT22;13300;51.032;3.710;2024-03-22T04:16:13;12.10;99.90
25346;DHT22;13300;51.032;3.710;2024-03-22T04:18:38;12.10;99.90
25346;DHT22;13300;51.032;3.710;2024-03-22T04:21:04;12.00;99.90
25346;DHT22;13300;51.032;3.710;2024-03-22T04:23:30;12.00;99.90
25346;DHT22;13300;51.032;3.710;2024-03-22T04:25:57;12.10;99.90
25346;DHT22;13300;51.032;3.710;2024-03-22T04:28:24;12.20;99.90
25346;DHT22;13300;51.032;3.710;2024-03-22T04:31:04;12.20;99.90
25346;DHT22;13300;51.032;3.710;2024-03-22T04:33:31;12.20;99.90
25346;DHT22;13300;51.032;3.710;2024-03-22T04:35:57;12.10;99.90
25346;DHT22;13300;51.032;3.710;2024-03-22T04:38:24;12.10;99.90
25346;DHT22;13300;51.032;3.710;2024-03-22T04:40:50;12.10;99.90
25346;DHT22;13300;51.032;3.710;2024-03-22T04:43:16;12.00;99.90
25346;DHT22;13300;51.032;3.710;2024-03-22T04:45:43;12.00;99.90
25346;DHT22;13300;51.032;3.710;2024-03-22T04:48:09;12.20;99.90
25346;DHT22;13300;51.032;3.710;2024-03-22T04:50:35;12.10;99.90
25346;DHT22;13300;51.032;3.710;2024-03-22T04:53:02;12.10;99.90
25346;DHT22;13300;51.032;3.710;2024-03-22T04:55:27;12.20;99.90
25346;DHT22;13300;51.032;3.710;2024-03-22T04:57:53;12.40;99.90
25346;DHT22;13300;51.032;3.710;2024-03-22T05:00:19;12.30;99.90
25346;DHT22;13300;51.032;3.710;2024-03-22T05:02:45;12.40;99.90
25346;DHT22;13300;51.032;3.710;2024-03-22T05:05:11;12.30;99.90
25346;DHT22;13300;51.032;3.710;2024-03-22T05:07:37;12.30;99.90
25346;DHT22;13300;51.032;3.710;2024-03-22T05:10:03;12.20;99.90
25346;DHT22;13300;51.032;3.710;2024-03-22T05:12:29;12.10;99.90
25346;DHT22;13300;51.032;3.710;2024-03-22T05:14:55;12.00;99.90
25346;DHT22;13300;51.032;3.710;2024-03-22T05:17:21;12.00;99.90
25346;DHT22;13300;51.032;3.710;2024-03-22T05:19:47;12.10;99.90
25346;DHT22;13300;51.032;3.710;2024-03-22T05:22:12;12.10;99.90
25346;DHT22;13300;51.032;3.710;2024-03-22T05:24:38;12.10;99.90
25346;DHT22;13300;51.032;3.710;2024-03-22T05:27:04;12.10;99.90
25346;DHT22;13300;51.032;3.710;2024-03-22T05:29:29;12.10;99.90
25346;DHT22;13300;51.032;3.710;2024-03-22T05:31:55;11.90;99.90
25346;DHT22;13300;51.032;3.710;2024-03-22T05:34:22;11.90;99.90
25346;DHT22;13300;51.032;3.710;2024-03-22T05:36:48;11.90;99.90
25346;DHT22;13300;51.032;3.710;2024-03-22T05:39:14;11.90;99.90
25346;DHT22;13300;51.032;3.710;2024-03-22T05:41:40;11.90;99.90
25346;DHT22;13300;51.032;3.710;2024-03-22T05:44:08;11.80;99.90
25346;DHT22;13300;51.032;3.710;2024-03-22T05:46:33;11.80;99.90
25346;DHT22;13300;51.032;3.710;2024-03-22T05:48:59;11.70;99.90
25346;DHT22;13300;51.032;3.710;2024-03-22T05:51:25;11.80;99.90
25346;DHT22;13300;51.032;3.710;2024-03-22T05:53:51;11.90;99.90
25346;DHT22;13300;51.032;3.710;2024-03-22T05:56:17;11.90;99.90
25346;DHT22;13300;51.032;3.710;2024-03-22T05:58:42;11.90;99.90
25346;DHT22;13300;51.032;3.710;2024-03-22T06:01:08;11.80;99.90
25346;DHT22;13300;51.032;3.710;2024-03-22T06:03:34;11.80;99.90
25346;DHT22;13300;51.032;3.710;2024-03-22T06:06:00;11.80;99.90
25346;DHT22;13300;51.032;3.710;2024-03-22T06:08:26;11.80;99.90
25346;DHT22;13300;51.032;3.710;2024-03-22T06:10:55;11.80;99.90
25346;DHT22;13300;51.032;3.710;2024-03-22T06:13:24;11.80;99.90
25346;DHT22;13300;51.032;3.710;2024-03-22T06:15:50;11.90;99.90
25346;DHT22;13300;51.032;3.710;2024-03-22T06:18:16;12.00;99.90
25346;DHT22;13300;51.032;3.710;2024-03-22T06:20:42;11.90;99.90
25346;DHT22;13300;51.032;3.710;2024-03-22T06:23:09;11.90;99.90
25346;DHT22;13300;51.032;3.710;2024-03-22T06:25:35;11.90;99.90
25346;DHT22;13300;51.032;3.710;2024-03-22T06:28:01;11.90;99.90
25346;DHT22;13300;51.032;3.710;2024-03-22T06:30:27;12.00;99.90
25346;DHT22;13300;51.032;3.710;2024-03-22T06:32:55;12.00;99.90
25346;DHT22;13300;51.032;3.710;2024-03-22T06:35:21;12.10;99.90
25346;DHT22;13300;51.032;3.710;2024-03-22T06:37:47;12.20;99.90
25346;DHT22;13300;51.032;3.710;2024-03-22T06:40:14;12.20;99.90
25346;DHT22;13300;51.032;3.710;2024-03-22T06:42:40;12.20;99.90
25346;DHT22;13300;51.032;3.710;2024-03-22T06:45:06;12.10;99.90
25346;DHT22;13300;51.032;3.710;2024-03-22T06:47:32;12.10;99.90
25346;DHT22;13300;51.032;3.710;2024-03-22T06:49:58;12.10;99.90
25346;DHT22;13300;51.032;3.710;2024-03-22T06:52:24;12.00;99.90
25346;DHT22;13300;51.032;3.710;2024-03-22T06:54:49;12.10;99.90
25346;DHT22;13300;51.032;3.710;2024-03-22T06:57:15;12.20;99.90
25346;DHT22;13300;51.032;3.710;2024-03-22T06:59:41;12.20;99.90
25346;DHT22;13300;51.032;3.710;2024-03-22T07:02:07;12.10;99.90
25346;DHT22;13300;51.032;3.710;2024-03-22T07:04:35;12.00;99.90
25346;DHT22;13300;51.032;3.710;2024-03-22T07:07:00;12.10;99.90
25346;DHT22;13300;51.032;3.710;2024-03-22T07:09:26;12.20;99.90
25346;DHT22;13300;51.032;3.710;2024-03-22T07:11:54;12.20;99.90
25346;DHT22;13300;51.032;3.710;2024-03-22T07:14:19;12.30;99.90
25346;DHT22;13300;51.032;3.710;2024-03-22T07:16:45;12.40;99.90
25346;DHT22;13300;51.032;3.710;2024-03-22T07:19:11;12.40;99.90
25346;DHT22;13300;51.032;3.710;2024-03-22T07:21:37;12.50;99.90
25346;DHT22;13300;51.032;3.710;2024-03-22T07:24:04;12.50;99.90
25346;DHT22;13300;51.032;3.710;2024-03-22T07:26:30;12.50;99.90
25346;DHT22;13300;51.032;3.710;2024-03-22T07:28:56;12.50;99.90
25346;DHT22;13300;51.032;3.710;2024-03-22T07:31:24;12.70;99.90
25346;DHT22;13300;51.032;3.710;2024-03-22T07:33:50;12.90;99.90
25346;DHT22;13300;51.032;3.710;2024-03-22T07:36:16;13.00;99.90
25346;DHT22;13300;51.032;3.710;2024-03-22T07:38:42;13.00;99.90
25346;DHT22;13300;51.032;3.710;2024-03-22T07:41:08;13.00;99.90
25346;DHT22;13300;51.032;3.710;2024-03-22T07:43:33;13.00;99.90
25346;DHT22;13300;51.032;3.710;2024-03-22T07:45:59;13.00;99.90
25346;DHT22;13300;51.032;3.710;2024-03-22T07:48:25;13.10;99.90
25346;DHT22;13300;51.032;3.710;2024-03-22T07:51:00;13.20;99.90
25346;DHT22;13300;51.032;3.710;2024-03-22T07:53:26;13.20;99.90
25346;DHT22;13300;51.032;3.710;2024-03-22T07:55:52;13.40;99.90
25346;DHT22;13300;51.032;3.710;2024-03-22T07:58:19;13.50;99.90
25346;DHT22;13300;51.032;3.710;2024-03-22T08:00:45;13.60;99.90
25346;DHT22;13300;51.032;3.710;2024-03-22T08:03:15;13.70;99.90
25346;DHT22;13300;51.032;3.710;2024-03-22T08:05:41;13.80;99.90
25346;DHT22;13300;51.032;3.710;2024-03-22T08:08:08;13.90;99.90
25346;DHT22;13300;51.032;3.710;2024-03-22T08:10:34;14.00;99.90
25346;DHT22;13300;51.032;3.710;2024-03-22T08:13:00;14.10;99.90
25346;DHT22;13300;51.032;3.710;2024-03-22T08:15:29;14.40;99.90
25346;DHT22;13300;51.032;3.710;2024-03-22T08:17:55;14.50;99.90
25346;DHT22;13300;51.032;3.710;2024-03-22T08:20:23;14.40;99.90
25346;DHT22;13300;51.032;3.710;2024-03-22T08:22:49;14.50;99.90
25346;DHT22;13300;51.032;3.710;2024-03-22T08:25:14;14.60;99.90
25346;DHT22;13300;51.032;3.710;2024-03-22T08:27:43;14.50;99.90
25346;DHT22;13300;51.032;3.710;2024-03-22T08:30:10;14.60;99.90
25346;DHT22;13300;51.032;3.710;2024-03-22T08:32:36;14.80;99.90
25346;DHT22;13300;51.032;3.710;2024-03-22T08:35:02;14.90;99.90
25346;DHT22;13300;51.032;3.710;2024-03-22T08:37:30;14.90;99.90
25346;DHT22;13300;51.032;3.710;2024-03-22T08:39:55;14.80;99.90
25346;DHT22;13300;51.032;3.710;2024-03-22T08:42:21;14.70;99.90
25346;DHT22;13300;51.032;3.710;2024-03-22T08:44:47;14.70;99.90
25346;DHT22;13300;51.032;3.710;2024-03-22T08:47:12;14.60;99.90
25346;DHT22;13300;51.032;3.710;2024-03-22T08:49:39;14.30;99.90
25346;DHT22;13300;51.032;3.710;2024-03-22T08:52:07;14.40;99.90
25346;DHT22;13300;51.032;3.710;2024-03-22T08:54:33;14.40;99.90
25346;DHT22;13300;51.032;3.710;2024-03-22T08:56:59;14.30;99.90
25346;DHT22;13300;51.032;3.710;2024-03-22T08:59:25;14.10;99.90
25346;DHT22;13300;51.032;3.710;2024-03-22T09:01:51;14.10;99.90
25346;DHT22;13300;51.032;3.710;2024-03-22T09:04:17;14.00;99.90
25346;DHT22;13300;51.032;3.710;2024-03-22T09:06:43;14.00;99.90
25346;DHT22;13300;51.032;3.710;2024-03-22T09:09:08;14.00;99.90
25346;DHT22;13300;51.032;3.710;2024-03-22T09:11:34;14.30;99.90
25346;DHT22;13300;51.032;3.710;2024-03-22T09:14:00;14.40;99.90
25346;DHT22;13300;51.032;3.710;2024-03-22T09:16:25;14.40;99.90
25346;DHT22;13300;51.032;3.710;2024-03-22T09:18:51;14.30;99.90
25346;DHT22;13300;51.032;3.710;2024-03-22T09:21:17;14.30;99.90
25346;DHT22;13300;51.032;3.710;2024-03-22T09:23:43;14.30;99.90
25346;DHT22;13300;51.032;3.710;2024-03-22T09:26:09;14.30;99.90
25346;DHT22;13300;51.032;3.710;2024-03-22T09:28:34;14.50;99.90
25346;DHT22;13300;51.032;3.710;2024-03-22T09:31:06;14.70;99.90
25346;DHT22;13300;51.032;3.710;2024-03-22T09:33:35;14.50;99.90
25346;DHT22;13300;51.032;3.710;2024-03-22T09:36:02;14.40;99.90
25346;DHT22;13300;51.032;3.710;2024-03-22T09:38:27;14.40;99.90
25346;DHT22;13300;51.032;3.710;2024-03-22T09:40:54;14.40;99.90
25346;DHT22;13300;51.032;3.710;2024-03-22T09:43:20;14.60;99.90
25346;DHT22;13300;51.032;3.710;2024-03-22T09:45:48;14.60;99.90
25346;DHT22;13300;51.032;3.710;2024-03-22T09:48:18;14.80;99.90
25346;DHT22;13300;51.032;3.710;2024-03-22T09:50:46;15.10;99.90
25346;DHT22;13300;51.032;3.710;2024-03-22T09:53:16;15.10;99.90
25346;DHT22;13300;51.032;3.710;2024-03-22T09:55:48;15.20;99.90
25346;DHT22;13300;51.032;3.710;2024-03-22T09:58:14;15.20;99.90
25346;DHT22;13300;51.032;3.710;2024-03-22T10:00:40;15.20;99.90
25346;DHT22;13300;51.032;3.710;2024-03-22T10:03:06;15.10;99.90
25346;DHT22;13300;51.032;3.710;2024-03-22T10:05:33;15.30;99.90
25346;DHT22;13300;51.032;3.710;2024-03-22T10:07:58;15.20;99.90
25346;DHT22;13300;51.032;3.710;2024-03-22T10:10:25;15.20;99.90
25346;DHT22;13300;51.032;3.710;2024-03-22T10:12:51;15.10;99.90
25346;DHT22;13300;51.032;3.710;2024-03-22T10:15:18;14.70;99.90
25346;DHT22;13300;51.032;3.710;2024-03-22T10:17:45;14.70;99.90
25346;DHT22;13300;51.032;3.710;2024-03-22T10:20:13;14.60;99.90
25346;DHT22;13300;51.032;3.710;2024-03-22T10:22:50;14.70;99.90
25346;DHT22;13300;51.032;3.710;2024-03-22T10:25:20;14.70;99.90
25346;DHT22;13300;51.032;3.710;2024-03-22T10:27:47;14.70;99.90
25346;DHT22;13300;51.032;3.710;2024-03-22T10:30:15;14.60;99.90
25346;DHT22;13300;51.032;3.710;2024-03-22T10:32:42;14.50;99.90
25346;DHT22;13300;51.032;3.710;2024-03-22T10:35:11;14.50;99.90
25346;DHT22;13300;51.032;3.710;2024-03-22T10:37:37;14.60;99.90
25346;DHT22;13300;51.032;3.710;2024-03-22T10:40:03;14.80;99.90
25346;DHT22;13300;51.032;3.710;2024-03-22T10:42:54;14.80;99.90
25346;DHT22;13300;51.032;3.710;2024-03-22T10:45:18;14.80;99.90
25346;DHT22;13300;51.032;3.710;2024-03-22T10:47:48;14.70;99.90
25346;DHT22;13300;51.032;3.710;2024-03-22T10:50:15;14.60;99.90
25346;DHT22;13300;51.032;3.710;2024-03-22T10:52:49;14.40;99.90
25346;DHT22;13300;51.032;3.710;2024-03-22T10:55:37;14.20;99.90
25346;DHT22;13300;51.032;3.710;2024-03-22T10:58:04;13.90;99.90
25346;DHT22;13300;51.032;3.710;2024-03-22T11:00:34;13.70;99.90
25346;DHT22;13300;51.032;3.710;2024-03-22T11:03:04;13.70;99.90
25346;DHT22;13300;51.032;3.710;2024-03-22T11:05:30;13.70;99.90
25346;DHT22;13300;51.032;3.710;2024-03-22T11:08:03;13.70;99.90
25346;DHT22;13300;51.032;3.710;2024-03-22T11:10:35;13.90;99.90
25346;DHT22;13300;51.032;3.710;2024-03-22T11:13:03;14.00;99.90
25346;DHT22;13300;51.032;3.710;2024-03-22T11:15:29;14.10;99.90
25346;DHT22;13300;51.032;3.710;2024-03-22T11:17:56;14.20;99.90
25346;DHT22;13300;51.032;3.710;2024-03-22T11:20:22;14.20;99.90
25346;DHT22;13300;51.032;3.710;2024-03-22T11:22:47;14.30;99.90
25346;DHT22;13300;51.032;3.710;2024-03-22T11:25:13;14.40;99.90
25346;DHT22;13300;51.032;3.710;2024-03-22T11:27:39;14.50;99.90
25346;DHT22;13300;51.032;3.710;2024-03-22T11:30:05;14.50;99.90
25346;DHT22;13300;51.032;3.710;2024-03-22T11:32:31;14.60;99.90
25346;DHT22;13300;51.032;3.710;2024-03-22T11:35:00;14.60;99.90
25346;DHT22;13300;51.032;3.710;2024-03-22T11:37:25;14.70;99.90
25346;DHT22;13300;51.032;3.710;2024-03-22T11:39:51;14.60;99.90
25346;DHT22;13300;51.032;3.710;2024-03-22T11:42:17;14.70;99.90
25346;DHT22;13300;51.032;3.710;2024-03-22T11:44:43;14.70;99.90
25346;DHT22;13300;51.032;3.710;2024-03-22T11:47:09;14.90;99.90
25346;DHT22;13300;51.032;3.710;2024-03-22T11:49:35;15.10;99.90
25346;DHT22;13300;51.032;3.710;2024-03-22T11:52:01;15.20;99.90
25346;DHT22;13300;51.032;3.710;2024-03-22T11:54:26;14.90;99.90
25346;DHT22;13300;51.032;3.710;2024-03-22T11:56:55;14.80;99.90
25346;DHT22;13300;51.032;3.710;2024-03-22T11:59:22;14.90;99.90
25346;DHT22;13300;51.032;3.710;2024-03-22T12:01:47;14.90;99.90
25346;DHT22;13300;51.032;3.710;2024-03-22T12:04:13;14.70;99.90
25346;DHT22;13300;51.032;3.710;2024-03-22T12:06:43;14.50;99.90
25346;DHT22;13300;51.032;3.710;2024-03-22T12:09:09;14.60;99.90
25346;DHT22;13300;51.032;3.710;2024-03-22T12:11:37;14.50;99.90
25346;DHT22;13300;51.032;3.710;2024-03-22T12:14:03;14.40;99.90
25346;DHT22;13300;51.032;3.710;2024-03-22T12:16:29;14.30;99.90
25346;DHT22;13300;51.032;3.710;2024-03-22T12:18:54;14.10;99.90
25346;DHT22;13300;51.032;3.710;2024-03-22T12:21:20;14.10;99.90
25346;DHT22;13300;51.032;3.710;2024-03-22T12:23:46;14.10;99.90
25346;DHT22;13300;51.032;3.710;2024-03-22T12:26:11;14.20;99.90
25346;DHT22;13300;51.032;3.710;2024-03-22T12:28:37;14.20;99.90
25346;DHT22;13300;51.032;3.710;2024-03-22T12:31:04;14.10;99.90
25346;DHT22;13300;51.032;3.710;2024-03-22T12:33:30;13.70;99.90
25346;DHT22;13300;51.032;3.710;2024-03-22T12:35:55;13.60;99.90
25346;DHT22;13300;51.032;3.710;2024-03-22T12:38:21;13.50;99.90
25346;DHT22;13300;51.032;3.710;2024-03-22T12:40:47;13.40;99.90
25346;DHT22;13300;51.032;3.710;2024-03-22T12:43:12;13.50;99.90
25346;DHT22;13300;51.032;3.710;2024-03-22T12:45:38;13.50;99.90
25346;DHT22;13300;51.032;3.710;2024-03-22T12:48:04;13.40;99.90
25346;DHT22;13300;51.032;3.710;2024-03-22T12:50:30;13.40;99.90
25346;DHT22;13300;51.032;3.710;2024-03-22T12:52:56;13.40;99.90
25346;DHT22;13300;51.032;3.710;2024-03-22T12:55:21;13.50;99.90
25346;DHT22;13300;51.032;3.710;2024-03-22T12:57:47;13.70;99.90
25346;DHT22;13300;51.032;3.710;2024-03-22T13:00:14;13.70;99.90
25346;DHT22;13300;51.032;3.710;2024-03-22T13:02:44;13.60;99.90
25346;DHT22;13300;51.032;3.710;2024-03-22T13:05:10;13.40;99.90
25346;DHT22;13300;51.032;3.710;2024-03-22T13:07:36;13.30;99.90
25346;DHT22;13300;51.032;3.710;2024-03-22T13:10:02;13.30;99.90
25346;DHT22;13300;51.032;3.710;2024-03-22T13:12:29;13.40;99.90
25346;DHT22;13300;51.032;3.710;2024-03-22T13:14:57;13.20;99.90
25346;DHT22;13300;51.032;3.710;2024-03-22T13:17:23;13.10;99.90
25346;DHT22;13300;51.032;3.710;2024-03-22T13:19:49;13.10;99.90
25346;DHT22;13300;51.032;3.710;2024-03-22T13:22:15;13.30;99.90
25346;DHT22;13300;51.032;3.710;2024-03-22T13:24:47;13.50;99.90
25346;DHT22;13300;51.032;3.710;2024-03-22T13:27:13;13.50;99.90
25346;DHT22;13300;51.032;3.710;2024-03-22T13:29:43;13.80;99.90
25346;DHT22;13300;51.032;3.710;2024-03-22T13:32:08;13.80;99.90
25346;DHT22;13300;51.032;3.710;2024-03-22T13:34:38;13.70;99.90
25346;DHT22;13300;51.032;3.710;2024-03-22T13:37:07;13.50;99.90
25346;DHT22;13300;51.032;3.710;2024-03-22T13:39:33;13.50;99.90
25346;DHT22;13300;51.032;3.710;2024-03-22T13:42:02;13.50;99.90
25346;DHT22;13300;51.032;3.710;2024-03-22T13:44:28;13.40;99.90
25346;DHT22;13300;51.032;3.710;2024-03-22T13:46:54;13.40;99.90
25346;DHT22;13300;51.032;3.710;2024-03-22T13:49:20;13.40;99.90
25346;DHT22;13300;51.032;3.710;2024-03-22T13:51:47;13.30;99.90
25346;DHT22;13300;51.032;3.710;2024-03-22T13:54:13;13.20;99.90
25346;DHT22;13300;51.032;3.710;2024-03-22T13:56:39;13.00;99.90
25346;DHT22;13300;51.032;3.710;2024-03-22T13:59:05;13.00;99.90
25346;DHT22;13300;51.032;3.710;2024-03-22T14:01:32;13.10;99.90
25346;DHT22;13300;51.032;3.710;2024-03-22T14:03:58;13.10;99.90
25346;DHT22;13300;51.032;3.710;2024-03-22T14:06:24;13.00;99.90
25346;DHT22;13300;51.032;3.710;2024-03-22T14:08:49;13.00;99.90
25346;DHT22;13300;51.032;3.710;2024-03-22T14:11:15;13.00;99.90
25346;DHT22;13300;51.032;3.710;2024-03-22T14:13:40;13.00;99.90
25346;DHT22;13300;51.032;3.710;2024-03-22T14:16:06;12.90;99.90
25346;DHT22;13300;51.032;3.710;2024-03-22T14:18:35;13.00;99.90
25346;DHT22;13300;51.032;3.710;2024-03-22T14:21:01;12.70;99.90
25346;DHT22;13300;51.032;3.710;2024-03-22T14:23:28;12.70;99.90
25346;DHT22;13300;51.032;3.710;2024-03-22T14:25:55;12.60;99.90
25346;DHT22;13300;51.032;3.710;2024-03-22T14:28:20;12.90;99.90
25346;DHT22;13300;51.032;3.710;2024-03-22T14:30:47;12.80;99.90
25346;DHT22;13300;51.032;3.710;2024-03-22T14:33:12;12.80;99.90
25346;DHT22;13300;51.032;3.710;2024-03-22T14:35:38;12.70;99.90
25346;DHT22;13300;51.032;3.710;2024-03-22T14:38:04;12.80;99.90
25346;DHT22;13300;51.032;3.710;2024-03-22T14:40:29;12.60;99.90
25346;DHT22;13300;51.032;3.710;2024-03-22T14:42:57;12.60;99.90
25346;DHT22;13300;51.032;3.710;2024-03-22T14:45:22;12.70;99.90
25346;DHT22;13300;51.032;3.710;2024-03-22T14:47:48;12.60;99.90
25346;DHT22;13300;51.032;3.710;2024-03-22T14:50:14;12.80;99.90
25346;DHT22;13300;51.032;3.710;2024-03-22T14:52:40;12.70;99.90
25346;DHT22;13300;51.032;3.710;2024-03-22T14:55:05;12.60;99.90
25346;DHT22;13300;51.032;3.710;2024-03-22T14:57:33;12.60;99.90
25346;DHT22;13300;51.032;3.710;2024-03-22T15:00:01;12.60;99.90
25346;DHT22;13300;51.032;3.710;2024-03-22T15:02:27;12.70;99.90
25346;DHT22;13300;51.032;3.710;2024-03-22T15:04:52;12.90;99.90
25346;DHT22;13300;51.032;3.710;2024-03-22T15:07:18;12.90;99.90
25346;DHT22;13300;51.032;3.710;2024-03-22T15:09:44;13.00;99.90
25346;DHT22;13300;51.032;3.710;2024-03-22T15:12:10;12.90;99.90
25346;DHT22;13300;51.032;3.710;2024-03-22T15:14:36;12.90;99.90
25346;DHT22;13300;51.032;3.710;2024-03-22T15:17:01;12.90;99.90
25346;DHT22;13300;51.032;3.710;2024-03-22T15:19:27;12.70;99.90
25346;DHT22;13300;51.032;3.710;2024-03-22T15:21:53;12.60;99.90
25346;DHT22;13300;51.032;3.710;2024-03-22T15:24:19;12.40;99.90